sensor_id;sensor_type;location;lat;lon;timestamp;temperature;humidity
56725;DHT22;42608;52.776;6.968;2023-11-18T00:00:15;3.50;99.90
56725;DHT22;42608;52.776;6.968;2023-11-18T00:02:42;3.50;99.90
56725;DHT22;42608;52.776;6.968;2023-11-18T00:05:09;3.40;99.90
56725;DHT22;42608;52.776;6.968;2023-11-18T00:07:35;3.40;99.90
56725;DHT22;42608;52.776;6.968;2023-11-18T00:10:00;3.40;99.90
56725;DHT22;42608;52.776;6.968;2023-11-18T00:12:26;3.40;99.90
56725;DHT22;42608;52.776;6.968;2023-11-18T00:14:51;3.40;99.90
56725;DHT22;42608;52.776;6.968;2023-11-18T00:17:17;3.30;99.90
56725;DHT22;42608;52.776;6.968;2023-11-18T00:19:43;3.30;99.90
56725;DHT22;42608;52.776;6.968;2023-11-18T00:22:11;3.30;99.90
56725;DHT22;42608;52.776;6.968;2023-11-18T00:24:37;3.20;99.90
56725;DHT22;42608;52.776;6.968;2023-11-18T00:27:03;3.20;99.90
56725;DHT22;42608;52.776;6.968;2023-11-18T00:29:34;3.20;99.90
56725;DHT22;42608;52.776;6.968;2023-11-18T00:32:00;3.20;99.90
56725;DHT22;42608;52.776;6.968;2023-11-18T00:34:25;3.10;99.90
56725;DHT22;42608;52.776;6.968;2023-11-18T00:36:51;3.10;99.90
56725;DHT22;42608;52.776;6.968;2023-11-18T00:39:17;3.00;99.90
56725;DHT22;42608;52.776;6.968;2023-11-18T00:41:43;3.00;99.90
56725;DHT22;42608;52.776;6.968;2023-11-18T00:44:08;3.00;99.90
56725;DHT22;42608;52.776;6.968;2023-11-18T00:46:34;3.00;99.90
56725;DHT22;42608;52.776;6.968;2023-11-18T00:49:02;3.00;99.90
56725;DHT22;42608;52.776;6.968;2023-11-18T00:51:27;2.90;99.90
56725;DHT22;42608;52.776;6.968;2023-11-18T00:53:53;2.90;99.90
56725;DHT22;42608;52.776;6.968;2023-11-18T00:56:20;2.90;99.90
56725;DHT22;42608;52.776;6.968;2023-11-18T00:58:49;2.90;99.90
56725;DHT22;42608;52.776;6.968;2023-11-18T01:01:15;2.90;99.90
56725;DHT22;42608;52.776;6.968;2023-11-18T01:03:43;2.90;99.90
56725;DHT22;42608;52.776;6.968;2023-11-18T01:06:09;2.80;99.90
56725;DHT22;42608;52.776;6.968;2023-11-18T01:08:35;2.80;99.90
56725;DHT22;42608;52.776;6.968;2023-11-18T01:11:00;2.80;99.90
56725;DHT22;42608;52.776;6.968;2023-11-18T01:13:26;2.80;99.90
56725;DHT22;42608;52.776;6.968;2023-11-18T01:15:52;2.80;99.90
56725;DHT22;42608;52.776;6.968;2023-11-18T01:18:18;2.80;99.90
56725;DHT22;42608;52.776;6.968;2023-11-18T01:20:43;2.80;99.90
56725;DHT22;42608;52.776;6.968;2023-11-18T01:23:09;2.70;99.90
56725;DHT22;42608;52.776;6.968;2023-11-18T01:25:34;2.70;99.90
56725;DHT22;42608;52.776;6.968;2023-11-18T01:28:00;2.70;99.90
56725;DHT22;42608;52.776;6.968;2023-11-18T01:30:25;2.70;99.90
56725;DHT22;42608;52.776;6.968;2023-11-18T01:32:52;2.70;99.90
56725;DHT22;42608;52.776;6.968;2023-11-18T01:35:17;2.70;99.90
56725;DHT22;42608;52.776;6.968;2023-11-18T01:37:43;2.70;99.90
56725;DHT22;42608;52.776;6.968;2023-11-18T01:40:09;2.70;99.90
56725;DHT22;42608;52.776;6.968;2023-11-18T01:42:40;2.70;99.90
56725;DHT22;42608;52.776;6.968;2023-11-18T01:45:06;2.70;99.90
56725;DHT22;42608;52.776;6.968;2023-11-18T01:47:36;2.70;99.90
56725;DHT22;42608;52.776;6.968;2023-11-18T01:50:02;2.70;99.90
56725;DHT22;42608;52.776;6.968;2023-11-18T01:52:31;2.70;99.90
56725;DHT22;42608;52.776;6.968;2023-11-18T01:54:57;2.70;99.90
56725;DHT22;42608;52.776;6.968;2023-11-18T01:57:23;2.70;99.90
56725;DHT22;42608;52.776;6.968;2023-11-18T01:59:52;2.70;99.90
56725;DHT22;42608;52.776;6.968;2023-11-18T02:02:18;2.70;99.90
56725;DHT22;42608;52.776;6.968;2023-11-18T02:04:46;2.70;99.90
56725;DHT22;42608;52.776;6.968;2023-11-18T02:07:12;2.70;99.90
56725;DHT22;42608;52.776;6.968;2023-11-18T02:09:43;2.70;99.90
56725;DHT22;42608;52.776;6.968;2023-11-18T02:12:22;2.70;99.90
56725;DHT22;42608;52.776;6.968;2023-11-18T02:14:49;2.70;99.90
56725;DHT22;42608;52.776;6.968;2023-11-18T02:17:16;2.70;99.90
56725;DHT22;42608;52.776;6.968;2023-11-18T02:19:42;2.70;99.90
56725;DHT22;42608;52.776;6.968;2023-11-18T02:22:08;2.70;99.90
56725;DHT22;42608;52.776;6.968;2023-11-18T02:24:36;2.70;99.90
56725;DHT22;42608;52.776;6.968;2023-11-18T02:27:03;2.70;99.90
56725;DHT22;42608;52.776;6.968;2023-11-18T02:29:29;2.70;99.90
56725;DHT22;42608;52.776;6.968;2023-11-18T02:35:32;2.70;99.90
56725;DHT22;42608;52.776;6.968;2023-11-18T02:37:44;2.70;99.90
56725;DHT22;42608;52.776;6.968;2023-11-18T02:40:13;2.80;99.90
56725;DHT22;42608;52.776;6.968;2023-11-18T02:42:40;2.70;99.90
56725;DHT22;42608;52.776;6.968;2023-11-18T02:45:08;2.70;99.90
56725;DHT22;42608;52.776;6.968;2023-11-18T02:47:37;2.80;99.90
56725;DHT22;42608;52.776;6.968;2023-11-18T02:50:05;2.80;99.90
56725;DHT22;42608;52.776;6.968;2023-11-18T02:52:31;2.80;99.90
56725;DHT22;42608;52.776;6.968;2023-11-18T02:54:58;2.80;99.90
56725;DHT22;42608;52.776;6.968;2023-11-18T02:57:24;2.80;99.90
56725;DHT22;42608;52.776;6.968;2023-11-18T02:59:49;2.80;99.90
56725;DHT22;42608;52.776;6.968;2023-11-18T03:02:15;2.80;99.90
56725;DHT22;42608;52.776;6.968;2023-11-18T03:04:40;2.80;99.90
56725;DHT22;42608;52.776;6.968;2023-11-18T03:07:07;2.90;99.90
56725;DHT22;42608;52.776;6.968;2023-11-18T03:09:33;2.90;99.90
56725;DHT22;42608;52.776;6.968;2023-11-18T03:12:00;2.90;99.90
56725;DHT22;42608;52.776;6.968;2023-11-18T03:14:25;2.90;99.90
56725;DHT22;42608;52.776;6.968;2023-11-18T03:16:51;2.90;99.90
56725;DHT22;42608;52.776;6.968;2023-11-18T03:19:17;2.90;99.90
56725;DHT22;42608;52.776;6.968;2023-11-18T03:21:42;2.90;99.90
56725;DHT22;42608;52.776;6.968;2023-11-18T03:24:08;2.90;99.90
56725;DHT22;42608;52.776;6.968;2023-11-18T03:26:34;2.90;99.90
56725;DHT22;42608;52.776;6.968;2023-11-18T03:29:00;2.90;99.90
56725;DHT22;42608;52.776;6.968;2023-11-18T03:31:25;2.90;99.90
56725;DHT22;42608;52.776;6.968;2023-11-18T03:33:51;2.90;99.90
56725;DHT22;42608;52.776;6.968;2023-11-18T03:36:17;2.90;99.90
56725;DHT22;42608;52.776;6.968;2023-11-18T03:38:43;2.90;99.90
56725;DHT22;42608;52.776;6.968;2023-11-18T03:41:09;2.90;99.90
56725;DHT22;42608;52.776;6.968;2023-11-18T03:43:34;2.90;99.90
56725;DHT22;42608;52.776;6.968;2023-11-18T03:46:00;2.90;99.90
56725;DHT22;42608;52.776;6.968;2023-11-18T03:48:25;2.90;99.90
56725;DHT22;42608;52.776;6.968;2023-11-18T03:50:51;2.90;99.90
56725;DHT22;42608;52.776;6.968;2023-11-18T03:53:17;2.90;99.90
56725;DHT22;42608;52.776;6.968;2023-11-18T03:55:42;2.90;99.90
56725;DHT22;42608;52.776;6.968;2023-11-18T03:58:08;2.90;99.90
56725;DHT22;42608;52.776;6.968;2023-11-18T04:00:34;3.00;99.90
56725;DHT22;42608;52.776;6.968;2023-11-18T04:02:59;2.90;99.90
56725;DHT22;42608;52.776;6.968;2023-11-18T04:05:25;2.90;99.90
56725;DHT22;42608;52.776;6.968;2023-11-18T04:07:50;2.90;99.90
56725;DHT22;42608;52.776;6.968;2023-11-18T04:10:17;2.90;99.90
56725;DHT22;42608;52.776;6.968;2023-11-18T04:12:43;2.90;99.90
56725;DHT22;42608;52.776;6.968;2023-11-18T04:15:12;2.90;99.90
56725;DHT22;42608;52.776;6.968;2023-11-18T04:17:37;2.90;99.90
56725;DHT22;42608;52.776;6.968;2023-11-18T04:20:03;2.90;99.90
56725;DHT22;42608;52.776;6.968;2023-11-18T04:22:34;2.90;99.90
56725;DHT22;42608;52.776;6.968;2023-11-18T04:24:59;2.90;99.90
56725;DHT22;42608;52.776;6.968;2023-11-18T04:27:25;2.90;99.90
56725;DHT22;42608;52.776;6.968;2023-11-18T04:29:50;2.90;99.90
56725;DHT22;42608;52.776;6.968;2023-11-18T04:32:16;2.90;99.90
56725;DHT22;42608;52.776;6.968;2023-11-18T04:34:41;2.90;99.90
56725;DHT22;42608;52.776;6.968;2023-11-18T04:37:07;2.90;99.90
56725;DHT22;42608;52.776;6.968;2023-11-18T04:39:33;2.90;99.90
56725;DHT22;42608;52.776;6.968;2023-11-18T04:41:59;2.90;99.90
56725;DHT22;42608;52.776;6.968;2023-11-18T04:44:24;2.90;99.90
56725;DHT22;42608;52.776;6.968;2023-11-18T04:46:50;2.90;99.90
56725;DHT22;42608;52.776;6.968;2023-11-18T04:49:15;2.90;99.90
56725;DHT22;42608;52.776;6.968;2023-11-18T04:51:41;3.00;99.90
56725;DHT22;42608;52.776;6.968;2023-11-18T04:54:06;2.90;99.90
56725;DHT22;42608;52.776;6.968;2023-11-18T04:56:35;2.90;99.90
56725;DHT22;42608;52.776;6.968;2023-11-18T04:59:04;2.90;99.90
56725;DHT22;42608;52.776;6.968;2023-11-18T05:01:30;2.90;99.90
56725;DHT22;42608;52.776;6.968;2023-11-18T05:03:56;2.90;99.90
56725;DHT22;42608;52.776;6.968;2023-11-18T05:06:22;2.90;99.90
56725;DHT22;42608;52.776;6.968;2023-11-18T05:08:48;2.90;99.90
56725;DHT22;42608;52.776;6.968;2023-11-18T05:11:13;2.90;99.90
56725;DHT22;42608;52.776;6.968;2023-11-18T05:13:39;2.90;99.90
56725;DHT22;42608;52.776;6.968;2023-11-18T05:16:07;2.90;99.90
56725;DHT22;42608;52.776;6.968;2023-11-18T05:18:33;2.90;99.90
56725;DHT22;42608;52.776;6.968;2023-11-18T05:21:02;2.90;99.90
56725;DHT22;42608;52.776;6.968;2023-11-18T05:23:28;2.90;99.90
56725;DHT22;42608;52.776;6.968;2023-11-18T05:25:57;2.90;99.90
56725;DHT22;42608;52.776;6.968;2023-11-18T05:28:23;2.90;99.90
56725;DHT22;42608;52.776;6.968;2023-11-18T05:30:49;2.90;99.90
56725;DHT22;42608;52.776;6.968;2023-11-18T05:33:16;2.90;99.90
56725;DHT22;42608;52.776;6.968;2023-11-18T05:35:43;2.90;99.90
56725;DHT22;42608;52.776;6.968;2023-11-18T05:38:17;2.90;99.90
56725;DHT22;42608;52.776;6.968;2023-11-18T05:40:49;2.90;99.90
56725;DHT22;42608;52.776;6.968;2023-11-18T05:43:24;2.90;99.90
56725;DHT22;42608;52.776;6.968;2023-11-18T05:45:52;2.90;99.90
56725;DHT22;42608;52.776;6.968;2023-11-18T05:48:36;2.90;99.90
56725;DHT22;42608;52.776;6.968;2023-11-18T05:51:03;3.00;99.90
56725;DHT22;42608;52.776;6.968;2023-11-18T05:53:28;3.00;99.90
56725;DHT22;42608;52.776;6.968;2023-11-18T05:55:54;3.00;99.90
56725;DHT22;42608;52.776;6.968;2023-11-18T05:58:20;3.00;99.90
56725;DHT22;42608;52.776;6.968;2023-11-18T06:00:46;3.00;99.90
56725;DHT22;42608;52.776;6.968;2023-11-18T06:03:12;3.00;99.90
56725;DHT22;42608;52.776;6.968;2023-11-18T06:05:37;3.00;99.90
56725;DHT22;42608;52.776;6.968;2023-11-18T06:08:03;3.00;99.90
56725;DHT22;42608;52.776;6.968;2023-11-18T06:10:29;3.10;99.90
56725;DHT22;42608;52.776;6.968;2023-11-18T06:12:57;3.00;99.90
56725;DHT22;42608;52.776;6.968;2023-11-18T06:15:24;3.10;99.90
56725;DHT22;42608;52.776;6.968;2023-11-18T06:17:49;3.10;99.90
56725;DHT22;42608;52.776;6.968;2023-11-18T06:20:15;3.10;99.90
56725;DHT22;42608;52.776;6.968;2023-11-18T06:22:42;3.10;99.90
56725;DHT22;42608;52.776;6.968;2023-11-18T06:25:08;3.10;99.90
56725;DHT22;42608;52.776;6.968;2023-11-18T06:27:34;3.10;99.90
56725;DHT22;42608;52.776;6.968;2023-11-18T06:30:00;3.10;99.90
56725;DHT22;42608;52.776;6.968;2023-11-18T06:32:29;3.10;99.90
56725;DHT22;42608;52.776;6.968;2023-11-18T06:34:56;3.10;99.90
56725;DHT22;42608;52.776;6.968;2023-11-18T06:37:21;3.10;99.90
56725;DHT22;42608;52.776;6.968;2023-11-18T06:39:47;3.10;99.90
56725;DHT22;42608;52.776;6.968;2023-11-18T06:42:14;3.10;99.90
56725;DHT22;42608;52.776;6.968;2023-11-18T06:44:40;3.20;99.90
56725;DHT22;42608;52.776;6.968;2023-11-18T06:47:05;3.20;99.90
56725;DHT22;42608;52.776;6.968;2023-11-18T06:49:31;3.20;99.90
56725;DHT22;42608;52.776;6.968;2023-11-18T06:52:00;3.20;99.90
56725;DHT22;42608;52.776;6.968;2023-11-18T06:54:34;3.20;99.90
56725;DHT22;42608;52.776;6.968;2023-11-18T06:56:59;3.20;99.90
56725;DHT22;42608;52.776;6.968;2023-11-18T06:59:25;3.20;99.90
56725;DHT22;42608;52.776;6.968;2023-11-18T07:01:50;3.20;99.90
56725;DHT22;42608;52.776;6.968;2023-11-18T07:04:16;3.20;99.90
56725;DHT22;42608;52.776;6.968;2023-11-18T07:06:42;3.30;99.90
56725;DHT22;42608;52.776;6.968;2023-11-18T07:09:08;3.30;99.90
56725;DHT22;42608;52.776;6.968;2023-11-18T07:11:41;3.30;99.90
56725;DHT22;42608;52.776;6.968;2023-11-18T07:14:07;3.20;99.90
56725;DHT22;42608;52.776;6.968;2023-11-18T07:16:34;3.20;99.90
56725;DHT22;42608;52.776;6.968;2023-11-18T07:19:00;3.20;99.90
56725;DHT22;42608;52.776;6.968;2023-11-18T07:21:25;3.20;99.90
56725;DHT22;42608;52.776;6.968;2023-11-18T07:23:51;3.30;99.90
56725;DHT22;42608;52.776;6.968;2023-11-18T07:26:16;3.30;99.90
56725;DHT22;42608;52.776;6.968;2023-11-18T07:28:42;3.30;99.90
56725;DHT22;42608;52.776;6.968;2023-11-18T07:31:09;3.30;99.90
56725;DHT22;42608;52.776;6.968;2023-11-18T07:33:34;3.30;99.90
56725;DHT22;42608;52.776;6.968;2023-11-18T07:36:00;3.30;99.90
56725;DHT22;42608;52.776;6.968;2023-11-18T07:38:28;3.30;99.90
56725;DHT22;42608;52.776;6.968;2023-11-18T07:40:54;3.30;99.90
56725;DHT22;42608;52.776;6.968;2023-11-18T07:43:22;3.30;99.90
56725;DHT22;42608;52.776;6.968;2023-11-18T07:45:47;3.40;99.90
56725;DHT22;42608;52.776;6.968;2023-11-18T07:48:18;3.40;99.90
56725;DHT22;42608;52.776;6.968;2023-11-18T07:50:46;3.40;99.90
56725;DHT22;42608;52.776;6.968;2023-11-18T07:53:12;3.40;99.90
56725;DHT22;42608;52.776;6.968;2023-11-18T07:55:38;3.40;99.90
56725;DHT22;42608;52.776;6.968;2023-11-18T07:58:08;3.40;99.90
56725;DHT22;42608;52.776;6.968;2023-11-18T08:00:37;3.40;99.90
56725;DHT22;42608;52.776;6.968;2023-11-18T08:03:05;3.40;99.90
56725;DHT22;42608;52.776;6.968;2023-11-18T08:05:32;3.40;99.90
56725;DHT22;42608;52.776;6.968;2023-11-18T08:07:58;3.40;99.90
56725;DHT22;42608;52.776;6.968;2023-11-18T08:10:24;3.40;99.90
56725;DHT22;42608;52.776;6.968;2023-11-18T08:12:50;3.40;99.90
56725;DHT22;42608;52.776;6.968;2023-11-18T08:15:17;3.40;99.90
56725;DHT22;42608;52.776;6.968;2023-11-18T08:17:44;3.50;99.90
56725;DHT22;42608;52.776;6.968;2023-11-18T08:20:09;3.50;99.90
56725;DHT22;42608;52.776;6.968;2023-11-18T08:22:40;3.50;99.90
56725;DHT22;42608;52.776;6.968;2023-11-18T08:25:06;3.50;99.90
56725;DHT22;42608;52.776;6.968;2023-11-18T08:27:34;3.50;99.90
56725;DHT22;42608;52.776;6.968;2023-11-18T08:29:59;3.50;99.90
56725;DHT22;42608;52.776;6.968;2023-11-18T08:32:25;3.50;99.90
56725;DHT22;42608;52.776;6.968;2023-11-18T08:34:50;3.50;99.90
56725;DHT22;42608;52.776;6.968;2023-11-18T08:37:16;3.50;99.90
56725;DHT22;42608;52.776;6.968;2023-11-18T08:39:42;3.60;99.90
56725;DHT22;42608;52.776;6.968;2023-11-18T08:42:07;3.60;99.90
56725;DHT22;42608;52.776;6.968;2023-11-18T08:44:33;3.60;99.90
56725;DHT22;42608;52.776;6.968;2023-11-18T08:46:59;3.60;99.90
56725;DHT22;42608;52.776;6.968;2023-11-18T08:49:25;3.60;99.90
56725;DHT22;42608;52.776;6.968;2023-11-18T08:51:50;3.60;99.90
56725;DHT22;42608;52.776;6.968;2023-11-18T08:54:21;3.60;99.90
56725;DHT22;42608;52.776;6.968;2023-11-18T08:57:04;3.60;99.90
56725;DHT22;42608;52.776;6.968;2023-11-18T08:59:29;3.60;99.90
56725;DHT22;42608;52.776;6.968;2023-11-18T09:01:56;3.70;99.90
56725;DHT22;42608;52.776;6.968;2023-11-18T09:04:24;3.70;99.90
56725;DHT22;42608;52.776;6.968;2023-11-18T09:06:53;3.70;99.90
56725;DHT22;42608;52.776;6.968;2023-11-18T09:09:22;3.70;99.90
56725;DHT22;42608;52.776;6.968;2023-11-18T09:11:53;3.80;99.90
56725;DHT22;42608;52.776;6.968;2023-11-18T09:14:19;3.80;99.90
56725;DHT22;42608;52.776;6.968;2023-11-18T09:16:45;3.80;99.90
56725;DHT22;42608;52.776;6.968;2023-11-18T09:19:11;3.80;99.90
56725;DHT22;42608;52.776;6.968;2023-11-18T09:21:36;3.80;99.90
56725;DHT22;42608;52.776;6.968;2023-11-18T09:24:02;3.80;99.90
56725;DHT22;42608;52.776;6.968;2023-11-18T09:26:30;3.90;99.90
56725;DHT22;42608;52.776;6.968;2023-11-18T09:28:56;3.90;99.90
56725;DHT22;42608;52.776;6.968;2023-11-18T09:31:22;3.90;99.90
56725;DHT22;42608;52.776;6.968;2023-11-18T09:33:48;3.90;99.90
56725;DHT22;42608;52.776;6.968;2023-11-18T09:36:22;4.00;99.90
56725;DHT22;42608;52.776;6.968;2023-11-18T09:38:48;4.00;99.90
56725;DHT22;42608;52.776;6.968;2023-11-18T09:41:19;4.10;99.90
56725;DHT22;42608;52.776;6.968;2023-11-18T09:43:49;4.10;99.90
56725;DHT22;42608;52.776;6.968;2023-11-18T09:46:28;4.10;99.90
56725;DHT22;42608;52.776;6.968;2023-11-18T09:49:02;4.20;99.90
56725;DHT22;42608;52.776;6.968;2023-11-18T09:51:40;4.20;99.90
56725;DHT22;42608;52.776;6.968;2023-11-18T09:54:12;4.20;99.90
56725;DHT22;42608;52.776;6.968;2023-11-18T09:56:41;4.30;99.90
56725;DHT22;42608;52.776;6.968;2023-11-18T09:59:11;4.30;99.90
56725;DHT22;42608;52.776;6.968;2023-11-18T10:01:42;4.30;99.90
56725;DHT22;42608;52.776;6.968;2023-11-18T10:04:08;4.40;99.90
56725;DHT22;42608;52.776;6.968;2023-11-18T10:06:36;4.40;99.90
56725;DHT22;42608;52.776;6.968;2023-11-18T10:09:04;4.40;99.90
56725;DHT22;42608;52.776;6.968;2023-11-18T10:11:44;4.50;99.90
56725;DHT22;42608;52.776;6.968;2023-11-18T10:14:13;4.40;99.90
56725;DHT22;42608;52.776;6.968;2023-11-18T10:16:41;4.50;99.90
56725;DHT22;42608;52.776;6.968;2023-11-18T10:19:07;4.50;99.90
56725;DHT22;42608;52.776;6.968;2023-11-18T10:21:34;4.50;99.90
56725;DHT22;42608;52.776;6.968;2023-11-18T10:24:05;4.50;99.90
56725;DHT22;42608;52.776;6.968;2023-11-18T10:26:35;4.50;99.90
56725;DHT22;42608;52.776;6.968;2023-11-18T10:29:03;4.50;99.90
56725;DHT22;42608;52.776;6.968;2023-11-18T10:31:33;4.50;99.90
56725;DHT22;42608;52.776;6.968;2023-11-18T10:34:00;4.60;99.90
56725;DHT22;42608;52.776;6.968;2023-11-18T10:36:26;4.60;99.90
56725;DHT22;42608;52.776;6.968;2023-11-18T10:38:52;4.60;99.90
56725;DHT22;42608;52.776;6.968;2023-11-18T10:41:21;4.60;99.90
56725;DHT22;42608;52.776;6.968;2023-11-18T10:43:46;4.60;99.90
56725;DHT22;42608;52.776;6.968;2023-11-18T10:46:14;4.60;99.90
56725;DHT22;42608;52.776;6.968;2023-11-18T10:51:07;4.60;99.90
56725;DHT22;42608;52.776;6.968;2023-11-18T10:53:32;4.60;99.90
56725;DHT22;42608;52.776;6.968;2023-11-18T10:55:58;4.60;99.90
56725;DHT22;42608;52.776;6.968;2023-11-18T10:58:24;4.70;99.90
56725;DHT22;42608;52.776;6.968;2023-11-18T11:00:50;4.60;99.90
56725;DHT22;42608;52.776;6.968;2023-11-18T11:03:18;4.70;99.90
56725;DHT22;42608;52.776;6.968;2023-11-18T11:05:44;4.70;99.90
56725;DHT22;42608;52.776;6.968;2023-11-18T11:08:13;4.70;99.90
56725;DHT22;42608;52.776;6.968;2023-11-18T11:10:42;4.70;99.90
56725;DHT22;42608;52.776;6.968;2023-11-18T11:13:08;4.70;99.90
56725;DHT22;42608;52.776;6.968;2023-11-18T11:15:36;4.70;99.90
56725;DHT22;42608;52.776;6.968;2023-11-18T11:18:05;4.70;99.90
56725;DHT22;42608;52.776;6.968;2023-11-18T11:20:39;4.70;99.90
56725;DHT22;42608;52.776;6.968;2023-11-18T11:28:03;4.70;99.90
56725;DHT22;42608;52.776;6.968;2023-11-18T11:30:44;4.80;99.90
56725;DHT22;42608;52.776;6.968;2023-11-18T11:33:14;4.80;99.90
56725;DHT22;42608;52.776;6.968;2023-11-18T11:35:43;4.80;99.90
56725;DHT22;42608;52.776;6.968;2023-11-18T11:38:12;4.80;99.90
56725;DHT22;42608;52.776;6.968;2023-11-18T11:40:38;4.80;99.90
56725;DHT22;42608;52.776;6.968;2023-11-18T11:43:07;4.80;99.90
56725;DHT22;42608;52.776;6.968;2023-11-18T11:45:36;4.90;99.90
56725;DHT22;42608;52.776;6.968;2023-11-18T11:48:02;4.90;99.90
56725;DHT22;42608;52.776;6.968;2023-11-18T11:53:40;4.90;99.90
56725;DHT22;42608;52.776;6.968;2023-11-18T11:56:11;4.90;99.90
56725;DHT22;42608;52.776;6.968;2023-11-18T11:58:40;5.00;99.90
56725;DHT22;42608;52.776;6.968;2023-11-18T12:01:21;5.00;99.90
56725;DHT22;42608;52.776;6.968;2023-11-18T12:03:52;4.90;99.90
56725;DHT22;42608;52.776;6.968;2023-11-18T12:06:23;5.00;99.90
56725;DHT22;42608;52.776;6.968;2023-11-18T12:08:52;5.00;99.90
56725;DHT22;42608;52.776;6.968;2023-11-18T12:11:18;5.00;99.90
56725;DHT22;42608;52.776;6.968;2023-11-18T12:16:57;5.00;99.90
56725;DHT22;42608;52.776;6.968;2023-11-18T12:19:29;5.00;99.90
56725;DHT22;42608;52.776;6.968;2023-11-18T12:22:02;5.10;99.90
56725;DHT22;42608;52.776;6.968;2023-11-18T12:24:38;5.10;99.90
56725;DHT22;42608;52.776;6.968;2023-11-18T12:27:05;5.10;99.90
56725;DHT22;42608;52.776;6.968;2023-11-18T12:29:41;5.10;99.90
56725;DHT22;42608;52.776;6.968;2023-11-18T12:32:08;5.10;99.90
56725;DHT22;42608;52.776;6.968;2023-11-18T12:34:53;5.10;99.90
56725;DHT22;42608;52.776;6.968;2023-11-18T12:42:59;5.10;99.90
56725;DHT22;42608;52.776;6.968;2023-11-18T12:45:46;5.10;99.90
56725;DHT22;42608;52.776;6.968;2023-11-18T12:48:20;5.20;99.90
56725;DHT22;42608;52.776;6.968;2023-11-18T12:50:54;5.20;99.90
56725;DHT22;42608;52.776;6.968;2023-11-18T12:53:21;5.20;99.90
56725;DHT22;42608;52.776;6.968;2023-11-18T12:55:49;5.20;99.90
56725;DHT22;42608;52.776;6.968;2023-11-18T12:58:16;5.20;99.90
56725;DHT22;42608;52.776;6.968;2023-11-18T13:00:43;5.20;99.90
56725;DHT22;42608;52.776;6.968;2023-11-18T13:03:10;5.20;99.90
56725;DHT22;42608;52.776;6.968;2023-11-18T13:05:36;5.20;99.90
56725;DHT22;42608;52.776;6.968;2023-11-18T13:08:02;5.20;99.90
56725;DHT22;42608;52.776;6.968;2023-11-18T13:10:31;5.20;99.90
56725;DHT22;42608;52.776;6.968;2023-11-18T13:12:58;5.30;99.90
56725;DHT22;42608;52.776;6.968;2023-11-18T13:15:25;5.30;99.90
56725;DHT22;42608;52.776;6.968;2023-11-18T13:18:01;5.30;99.90
56725;DHT22;42608;52.776;6.968;2023-11-18T13:20:27;5.30;99.90
56725;DHT22;42608;52.776;6.968;2023-11-18T13:22:54;5.30;99.90
56725;DHT22;42608;52.776;6.968;2023-11-18T13:25:22;5.30;99.90
56725;DHT22;42608;52.776;6.968;2023-11-18T13:27:48;5.30;99.90
56725;DHT22;42608;52.776;6.968;2023-11-18T13:30:15;5.30;99.90
56725;DHT22;42608;52.776;6.968;2023-11-18T13:32:42;5.30;99.90
56725;DHT22;42608;52.776;6.968;2023-11-18T13:35:08;5.40;99.90
56725;DHT22;42608;52.776;6.968;2023-11-18T13:37:34;5.30;99.90
56725;DHT22;42608;52.776;6.968;2023-11-18T13:39:59;5.40;99.90
56725;DHT22;42608;52.776;6.968;2023-11-18T13:42:26;5.30;99.90
56725;DHT22;42608;52.776;6.968;2023-11-18T13:44:53;5.40;99.90
56725;DHT22;42608;52.776;6.968;2023-11-18T13:47:25;5.40;99.90
56725;DHT22;42608;52.776;6.968;2023-11-18T13:49:55;5.40;99.90
56725;DHT22;42608;52.776;6.968;2023-11-18T13:52:24;5.40;99.90
56725;DHT22;42608;52.776;6.968;2023-11-18T13:54:51;5.40;99.90
56725;DHT22;42608;52.776;6.968;2023-11-18T13:57:22;5.50;99.90
56725;DHT22;42608;52.776;6.968;2023-11-18T13:59:49;5.40;99.90
56725;DHT22;42608;52.776;6.968;2023-11-18T14:02:15;5.50;99.90
56725;DHT22;42608;52.776;6.968;2023-11-18T14:04:42;5.50;99.90
56725;DHT22;42608;52.776;6.968;2023-11-18T14:07:13;5.50;99.90
56725;DHT22;42608;52.776;6.968;2023-11-18T14:09:41;5.50;99.90
56725;DHT22;42608;52.776;6.968;2023-11-18T14:12:07;5.50;99.90
56725;DHT22;42608;52.776;6.968;2023-11-18T14:14:33;5.60;99.90
56725;DHT22;42608;52.776;6.968;2023-11-18T14:16:59;5.60;99.90
56725;DHT22;42608;52.776;6.968;2023-11-18T14:19:27;5.60;99.90
56725;DHT22;42608;52.776;6.968;2023-11-18T14:21:54;5.60;99.90
56725;DHT22;42608;52.776;6.968;2023-11-18T14:24:20;5.60;99.90
56725;DHT22;42608;52.776;6.968;2023-11-18T14:26:48;5.60;99.90
56725;DHT22;42608;52.776;6.968;2023-11-18T14:29:14;5.70;99.90
56725;DHT22;42608;52.776;6.968;2023-11-18T14:31:39;5.60;99.90
56725;DHT22;42608;52.776;6.968;2023-11-18T14:34:05;5.60;99.90
56725;DHT22;42608;52.776;6.968;2023-11-18T14:36:31;5.60;99.90
56725;DHT22;42608;52.776;6.968;2023-11-18T14:38:57;5.70;99.90
56725;DHT22;42608;52.776;6.968;2023-11-18T14:41:25;5.70;99.90
56725;DHT22;42608;52.776;6.968;2023-11-18T14:43:52;5.70;99.90
56725;DHT22;42608;52.776;6.968;2023-11-18T14:46:17;5.70;99.90
56725;DHT22;42608;52.776;6.968;2023-11-18T14:48:44;5.70;99.90
56725;DHT22;42608;52.776;6.968;2023-11-18T14:51:09;5.70;99.90
56725;DHT22;42608;52.776;6.968;2023-11-18T14:53:36;5.70;99.90
56725;DHT22;42608;52.776;6.968;2023-11-18T14:56:03;5.70;99.90
56725;DHT22;42608;52.776;6.968;2023-11-18T14:58:30;5.70;99.90
56725;DHT22;42608;52.776;6.968;2023-11-18T15:00:58;5.80;99.90
56725;DHT22;42608;52.776;6.968;2023-11-18T15:03:24;5.80;99.90
56725;DHT22;42608;52.776;6.968;2023-11-18T15:05:50;5.80;99.90
56725;DHT22;42608;52.776;6.968;2023-11-18T15:08:16;5.80;99.90
56725;DHT22;42608;52.776;6.968;2023-11-18T15:10:41;5.80;99.90
56725;DHT22;42608;52.776;6.968;2023-11-18T15:13:07;5.80;99.90
56725;DHT22;42608;52.776;6.968;2023-11-18T15:15:38;5.90;99.90
56725;DHT22;42608;52.776;6.968;2023-11-18T15:18:04;5.90;99.90
56725;DHT22;42608;52.776;6.968;2023-11-18T15:20:31;5.90;99.90
56725;DHT22;42608;52.776;6.968;2023-11-18T15:22:57;5.90;99.90
56725;DHT22;42608;52.776;6.968;2023-11-18T15:25:23;5.90;99.90
56725;DHT22;42608;52.776;6.968;2023-11-18T15:27:48;5.90;99.90
56725;DHT22;42608;52.776;6.968;2023-11-18T15:30:15;5.90;99.90
56725;DHT22;42608;52.776;6.968;2023-11-18T15:32:46;5.90;99.90
56725;DHT22;42608;52.776;6.968;2023-11-18T15:35:12;6.00;99.90
56725;DHT22;42608;52.776;6.968;2023-11-18T15:37:38;6.00;99.90
56725;DHT22;42608;52.776;6.968;2023-11-18T15:40:09;6.00;99.90
56725;DHT22;42608;52.776;6.968;2023-11-18T15:42:37;6.00;99.90
56725;DHT22;42608;52.776;6.968;2023-11-18T15:45:03;6.00;99.90
56725;DHT22;42608;52.776;6.968;2023-11-18T15:47:28;6.00;99.90
56725;DHT22;42608;52.776;6.968;2023-11-18T15:49:54;6.10;99.90
56725;DHT22;42608;52.776;6.968;2023-11-18T15:52:19;6.10;99.90
56725;DHT22;42608;52.776;6.968;2023-11-18T15:54:45;6.10;99.90
56725;DHT22;42608;52.776;6.968;2023-11-18T15:57:12;6.10;99.90
56725;DHT22;42608;52.776;6.968;2023-11-18T15:59:38;6.10;99.90
56725;DHT22;42608;52.776;6.968;2023-11-18T16:02:04;6.10;99.90
56725;DHT22;42608;52.776;6.968;2023-11-18T16:04:31;6.20;99.90
56725;DHT22;42608;52.776;6.968;2023-11-18T16:06:56;6.20;99.90